Observation data for Northwest Lubbock on 07/05/2020      Previous  Date  Next       Current Mesonet Observations  Soil Data  Daily Summary Page  Observations in Plain Language
KLBW 050500Z 09006KT 25/17 A2999 RMK A01 T02480165  RH  063%=      5-min Rain = 0
KLBW 050505Z 09005KT 25/16 A2999 RMK A01 T02470164  RH  063%=      5-min Rain = 0
KLBW 050510Z 09006KT 25/16 A2999 RMK A01 T02460164  RH  063%=      5-min Rain = 0
KLBW 050515Z 08006KT 25/16 A2999 RMK A01 T02450164  RH  064%=      5-min Rain = 0
KLBW 050520Z 09005KT 25/16 A30 RMK A01 T02450164  RH  064%=      5-min Rain = 0
KLBW 050525Z 09005KT 24/16 A30 RMK A01 T02430164  RH  064%=      5-min Rain = 0
KLBW 050530Z 09005KT 24/16 A30 RMK A01 T02420164  RH  065%=      5-min Rain = 0
KLBW 050535Z 09005KT 24/16 A30 RMK A01 T02420164  RH  065%=      5-min Rain = 0
KLBW 050540Z 09005KT 24/16 A30 RMK A01 T02430164  RH  064%=      5-min Rain = 0
KLBW 050545Z 09005KT 24/16 A30 RMK A01 T02430164  RH  064%=      5-min Rain = 0
KLBW 050550Z 10006KT 24/16 A30 RMK A01 T02430164  RH  064%=      5-min Rain = 0
KLBW 050555Z 10005KT 24/16 A30 RMK A01 T02430163  RH  064%=      5-min Rain = 0
KLBW 050600Z 10004KT 24/16 A30 RMK A01 T02430163  RH  064%=      5-min Rain = 0
KLBW 050605Z 10004KT 24/16 A30 RMK A01 T02410163  RH  065%=      5-min Rain = 0
KLBW 050610Z 09004KT 24/16 A30 RMK A01 T02410163  RH  065%=      5-min Rain = 0
KLBW 050615Z 08004KT 24/16 A30 RMK A01 T02400163  RH  065%=      5-min Rain = 0
KLBW 050620Z 09004KT 24/16 A3001 RMK A01 T02400163  RH  065%=      5-min Rain = 0
KLBW 050625Z 08003KT 24/16 A3001 RMK A01 T02400163  RH  065%=      5-min Rain = 0
KLBW 050630Z 08003KT 24/16 A3001 RMK A01 T02400164  RH  066%=      5-min Rain = 0
KLBW 050635Z 08002KT 24/16 A3001 RMK A01 T02390163  RH  066%=      5-min Rain = 0
KLBW 050640Z 07002KT 24/16 A3001 RMK A01 T02390164  RH  066%=      5-min Rain = 0
KLBW 050645Z 07003KT 24/16 A3001 RMK A01 T02380163  RH  066%=      5-min Rain = 0
KLBW 050650Z 06004KT 24/16 A3001 RMK A01 T02400163  RH  065%=      5-min Rain = 0
KLBW 050655Z 03005KT 24/16 A3002 RMK A01 T02430164  RH  064%=      5-min Rain = 0
KLBW 050700Z 34014G23KT 24/16 A3005 RMK A01 T02440163  RH  064%=      5-min Rain = 0
KLBW 050705Z 34016G24KT 24/17 A3006 RMK A01 T02390168  RH  067%=      5-min Rain = 0
KLBW 050710Z 34014G21KT 24/17 A3008 RMK A01 T02440166  RH  065%=      5-min Rain = 0
KLBW 050715Z 35018G24KT 25/16 A3009 RMK A01 T02500161  RH  061%=      5-min Rain = 0
KLBW 050720Z 34018G26KT 25/16 A3009 RMK A01 T02480159  RH  061%=      5-min Rain = 0
KLBW 050725Z 35016G28KT 24/16 A3009 RMK A01 T02430162  RH  063%=      5-min Rain = 0
KLBW 050730Z 35016G25KT 23/17 A3009 RMK A01 T02340167  RH  069%=      5-min Rain = 0
KLBW 050735Z 34016G21KT 22/18 A3009 RMK A01 T02240175  RH  078%=      5-min Rain = 0
KLBW 050740Z 35015G21KT 22/18 A301 RMK A01 T02180177  RH  082%=      5-min Rain = 0.01
KLBW 050745Z 34014G20KT 22/18 A301 RMK A01 T02170178  RH  082%=      5-min Rain = 0
KLBW 050750Z 34013G19KT 22/18 A301 RMK A01 T02150177  RH  083%=      5-min Rain = 0
KLBW 050755Z 34012G19KT 22/17 A301 RMK A01 T02160173  RH  080%=      5-min Rain = 0
KLBW 050800Z 34013G20KT 22/16 A301 RMK A01 T02170163  RH  075%=      5-min Rain = 0
KLBW 050805Z 34012G18KT 22/16 A301 RMK A01 T02160158  RH  073%=      5-min Rain = 0
KLBW 050810Z 34015G21KT 21/16 A301 RMK A01 T02130158  RH  074%=      5-min Rain = 0.01
KLBW 050815Z 34014G21KT 21/16 A301 RMK A01 T02080160  RH  078%=      5-min Rain = 0
KLBW 050820Z 34013G21KT 21/16 A301 RMK A01 T02070159  RH  078%=      5-min Rain = 0
KLBW 050825Z 34015G21KT 21/16 A3009 RMK A01 T02100157  RH  075%=      5-min Rain = 0
KLBW 050830Z 34013G21KT 21/16 A301 RMK A01 T02110157  RH  075%=      5-min Rain = 0
KLBW 050835Z 34015G23KT 21/16 A301 RMK A01 T02110158  RH  075%=      5-min Rain = 0
KLBW 050840Z 34013G21KT 21/16 A3009 RMK A01 T02090162  RH  078%=      5-min Rain = 0
KLBW 050845Z 34012G19KT 21/16 A3009 RMK A01 T02070163  RH  080%=      5-min Rain = 0
KLBW 050850Z 35010KT 21/16 A3009 RMK A01 T02060164  RH  080%=      5-min Rain = 0
KLBW 050855Z 35009KT 21/16 A3009 RMK A01 T02060164  RH  081%=      5-min Rain = 0
KLBW 050900Z 35006KT 21/17 A3009 RMK A01 T02050165  RH  082%=      5-min Rain = 0
KLBW 050905Z 35006KT 21/17 A3009 RMK A01 T02070165  RH  081%=      5-min Rain = 0
KLBW 050910Z 35007KT 21/16 A3009 RMK A01 T02100164  RH  079%=      5-min Rain = 0
KLBW 050915Z 00008KT 21/16 A3009 RMK A01 T02100164  RH  078%=      5-min Rain = 0
KLBW 050920Z 00007KT 21/17 A3009 RMK A01 T02090166  RH  080%=      5-min Rain = 0
KLBW 050925Z 36005KT 21/17 A3009 RMK A01 T02080167  RH  082%=      5-min Rain = 0
KLBW 050930Z 00005KT 21/17 A3009 RMK A01 T02070169  RH  083%=      5-min Rain = 0
KLBW 050935Z 01006KT 21/17 A3008 RMK A01 T02070168  RH  082%=      5-min Rain = 0
KLBW 050940Z 01004KT 21/17 A3008 RMK A01 T02080168  RH  082%=      5-min Rain = 0
KLBW 050945Z 30002KT 21/17 A3008 RMK A01 T02070169  RH  083%=      5-min Rain = 0
KLBW 050950Z 36004KT 21/17 A3007 RMK A01 T02070168  RH  082%=      5-min Rain = 0
KLBW 050955Z 35006KT 21/17 A3006 RMK A01 T02080168  RH  081%=      5-min Rain = 0
KLBW 051000Z 35008KT 21/17 A3005 RMK A01 T02090166  RH  080%=      5-min Rain = 0
KLBW 051005Z 33007KT 21/17 A3005 RMK A01 T02100166  RH  080%=      5-min Rain = 0
KLBW 051010Z 33006KT 21/17 A3005 RMK A01 T02050169  RH  084%=      5-min Rain = 0
KLBW 051015Z 34005KT 21/17 A3004 RMK A01 T02060169  RH  083%=      5-min Rain = 0
KLBW 051020Z 36004KT 21/17 A3003 RMK A01 T02070169  RH  082%=      5-min Rain = 0
KLBW 051025Z 03004KT 21/17 A3002 RMK A01 T02080168  RH  082%=      5-min Rain = 0
KLBW 051030Z 05006KT 21/17 A30 RMK A01 T02080169  RH  083%=      5-min Rain = 0
KLBW 051035Z 03007KT 21/17 A2999 RMK A01 T02100167  RH  081%=      5-min Rain = 0
KLBW 051040Z 04006KT 21/16 A2999 RMK A01 T02130163  RH  077%=      5-min Rain = 0
KLBW 051045Z 02002KT 22/16 A2999 RMK A01 T02150161  RH  075%=      5-min Rain = 0
KLBW 051050Z 14003KT 21/16 A2998 RMK A01 T02140163  RH  076%=      5-min Rain = 0
KLBW 051055Z 11003KT 21/16 A2998 RMK A01 T02110163  RH  078%=      5-min Rain = 0
KLBW 051100Z 09004KT 21/16 A2998 RMK A01 T02120160  RH  076%=      5-min Rain = 0
KLBW 051105Z 08002KT 21/16 A2998 RMK A01 T02130162  RH  076%=      5-min Rain = 0
KLBW 051110Z 09003KT 21/16 A2998 RMK A01 T02120161  RH  076%=      5-min Rain = 0
KLBW 051115Z 12004KT 21/16 A2998 RMK A01 T02110161  RH  077%=      5-min Rain = 0
KLBW 051120Z 13005KT 21/16 A2998 RMK A01 T02090158  RH  076%=      5-min Rain = 0
KLBW 051125Z 13005KT 21/16 A2998 RMK A01 T02090157  RH  076%=      5-min Rain = 0
KLBW 051130Z 13005KT 21/16 A2998 RMK A01 T02110157  RH  075%=      5-min Rain = 0
KLBW 051135Z 13005KT 21/16 A2998 RMK A01 T02110157  RH  074%=      5-min Rain = 0
KLBW 051140Z 12004KT 21/16 A2998 RMK A01 T02110157  RH  075%=      5-min Rain = 0
KLBW 051145Z 13003KT 21/16 A2998 RMK A01 T02090156  RH  075%=      5-min Rain = 0
KLBW 051150Z 13003KT 21/16 A2999 RMK A01 T02080156  RH  076%=      5-min Rain = 0
KLBW 051155Z 13005KT 21/16 A2999 RMK A01 T02070157  RH  076%=      5-min Rain = 0
KLBW 051200Z 07004KT 21/16 A30 RMK A01 T02050158  RH  078%=      5-min Rain = 0
KLBW 051205Z 07003KT 21/16 A30 RMK A01 T02060158  RH  077%=      5-min Rain = 0
KLBW 051210Z 10003KT 21/16 A30 RMK A01 T02050157  RH  077%=      5-min Rain = 0
KLBW 051215Z 04006KT 21/16 A3001 RMK A01 T02060158  RH  077%=      5-min Rain = 0
KLBW 051220Z 10004KT 21/16 A30 RMK A01 T02080158  RH  077%=      5-min Rain = 0
KLBW 051225Z 04003KT 21/16 A3001 RMK A01 T02080159  RH  077%=      5-min Rain = 0
KLBW 051230Z 06003KT 21/16 A30 RMK A01 T02120160  RH  076%=      5-min Rain = 0
KLBW 051235Z 12002KT 22/16 A30 RMK A01 T02160160  RH  074%=      5-min Rain = 0
KLBW 051240Z 12001KT 22/16 A30 RMK A01 T02190160  RH  072%=      5-min Rain = 0
KLBW 051245Z 14001KT 22/16 A3001 RMK A01 T02230161  RH  072%=      5-min Rain = 0
KLBW 051250Z 15003KT 22/16 A3001 RMK A01 T02220161  RH  072%=      5-min Rain = 0
KLBW 051255Z 14004KT 22/16 A3001 RMK A01 T02200160  RH  072%=      5-min Rain = 0
KLBW 051300Z 13004KT 22/16 A3002 RMK A01 T02230158  RH  070%=      5-min Rain = 0
KLBW 051305Z 11003KT 22/16 A3002 RMK A01 T02240157  RH  069%=      5-min Rain = 0
KLBW 051310Z 11002KT 23/16 A3002 RMK A01 T02250156  RH  068%=      5-min Rain = 0
KLBW 051315Z 05002KT 23/16 A3002 RMK A01 T02290157  RH  067%=      5-min Rain = 0
KLBW 051320Z 06004KT 23/16 A3003 RMK A01 T02330156  RH  065%=      5-min Rain = 0
KLBW 051325Z 06005KT 24/16 A3003 RMK A01 T02360155  RH  063%=      5-min Rain = 0
KLBW 051330Z 05005KT 24/16 A3003 RMK A01 T02380155  RH  063%=      5-min Rain = 0
KLBW 051335Z 04005KT 24/16 A3003 RMK A01 T02370156  RH  063%=      5-min Rain = 0
KLBW 051340Z 04005KT 23/16 A3003 RMK A01 T02330156  RH  065%=      5-min Rain = 0
KLBW 051345Z 04007KT 23/16 A3004 RMK A01 T02310156  RH  065%=      5-min Rain = 0
KLBW 051350Z 05007KT 23/16 A3004 RMK A01 T02310156  RH  066%=      5-min Rain = 0
KLBW 051355Z 04007KT 23/16 A3004 RMK A01 T02320155  RH  065%=      5-min Rain = 0
KLBW 051400Z 04007KT 23/16 A3005 RMK A01 T02320155  RH  065%=      5-min Rain = 0
KLBW 051405Z 05005KT 23/16 A3005 RMK A01 T02340160  RH  066%=      5-min Rain = 0
KLBW 051410Z 04005KT 23/16 A3005 RMK A01 T02330160  RH  067%=      5-min Rain = 0
KLBW 051415Z 05006KT 23/16 A3005 RMK A01 T02340159  RH  066%=      5-min Rain = 0
KLBW 051420Z 05006KT 24/16 A3005 RMK A01 T02370158  RH  064%=      5-min Rain = 0
KLBW 051425Z 05006KT 24/16 A3006 RMK A01 T02440158  RH  062%=      5-min Rain = 0
KLBW 051430Z 05007KT 25/16 A3006 RMK A01 T02470156  RH  060%=      5-min Rain = 0
KLBW 051435Z 08005KT 25/16 A3006 RMK A01 T02540159  RH  058%=      5-min Rain = 0
KLBW 051440Z 08006KT 26/16 A3006 RMK A01 T02590158  RH  056%=      5-min Rain = 0
KLBW 051445Z 07006KT 26/16 A3006 RMK A01 T02590158  RH  056%=      5-min Rain = 0
KLBW 051450Z 07005KT 26/16 A3006 RMK A01 T02620158  RH  055%=      5-min Rain = 0
KLBW 051455Z 08006KT 26/16 A3006 RMK A01 T02630157  RH  055%=      5-min Rain = 0
KLBW 051500Z 10006KT 27/16 A3006 RMK A01 T02700158  RH  053%=      5-min Rain = 0.01
KLBW 051505Z 06006KT 27/15 A3006 RMK A01 T02700154  RH  052%=      5-min Rain = 0
KLBW 051510Z 08006KT 27/15 A3006 RMK A01 T02700153  RH  051%=      5-min Rain = 0
KLBW 051515Z 06006KT 26/15 A3006 RMK A01 T02640150  RH  052%=      5-min Rain = 0
KLBW 051520Z 04005KT 27/15 A3006 RMK A01 T02670150  RH  051%=      5-min Rain = 0
KLBW 051525Z 06004KT 27/15 A3006 RMK A01 T02670150  RH  051%=      5-min Rain = 0
KLBW 051530Z 10005KT 28/15 A3005 RMK A01 T02750153  RH  050%=      5-min Rain = 0
KLBW 051535Z 10004KT 28/15 A3005 RMK A01 T02820152  RH  047%=      5-min Rain = 0
KLBW 051540Z 07004KT 29/15 A3005 RMK A01 T02860153  RH  046%=      5-min Rain = 0
KLBW 051545Z 09007KT 29/15 A3005 RMK A01 T02880148  RH  044%=      5-min Rain = 0
KLBW 051550Z 09006KT 29/15 A3005 RMK A01 T02860145  RH  044%=      5-min Rain = 0
KLBW 051555Z 08005KT 29/14 A3005 RMK A01 T02880143  RH  043%=      5-min Rain = 0
KLBW 051600Z 09006KT 29/14 A3005 RMK A01 T02910143  RH  042%=      5-min Rain = 0
KLBW 051605Z 06004KT 29/14 A3005 RMK A01 T02920142  RH  042%=      5-min Rain = 0
KLBW 051610Z 08005KT 29/14 A3005 RMK A01 T02930142  RH  041%=      5-min Rain = 0
KLBW 051615Z 09006KT 29/14 A3005 RMK A01 T02920141  RH  041%=      5-min Rain = 0
KLBW 051620Z 10005KT 30/14 A3005 RMK A01 T02950142  RH  041%=      5-min Rain = 0
KLBW 051625Z 06006KT 30/14 A3005 RMK A01 T02970141  RH  040%=      5-min Rain = 0
KLBW 051630Z 06007KT 29/14 A3005 RMK A01 T02940140  RH  041%=      5-min Rain = 0
KLBW 051635Z 08006G11KT 30/14 A3005 RMK A01 T02990144  RH  041%=      5-min Rain = 0
KLBW 051640Z 07008KT 30/15 A3005 RMK A01 T03010150  RH  042%=      5-min Rain = 0
KLBW 051645Z 07006G13KT 30/15 A3005 RMK A01 T02990149  RH  042%=      5-min Rain = 0
KLBW 051650Z 07011KT 29/15 A3005 RMK A01 T02940153  RH  044%=      5-min Rain = 0
KLBW 051655Z 06008KT 30/16 A3005 RMK A01 T02950155  RH  045%=      5-min Rain = 0
KLBW 051700Z 05010G15KT 30/15 A3005 RMK A01 T02950153  RH  044%=      5-min Rain = 0
KLBW 051705Z 05011KT 30/15 A3005 RMK A01 T02980151  RH  043%=      5-min Rain = 0
KLBW 051710Z 06009G14KT 30/15 A3005 RMK A01 T02960149  RH  043%=      5-min Rain = 0
KLBW 051715Z 07008G14KT 30/15 A3005 RMK A01 T03000152  RH  042%=      5-min Rain = 0
KLBW 051720Z 06008G13KT 30/15 A3005 RMK A01 T03010150  RH  042%=      5-min Rain = 0
KLBW 051725Z 09006KT 30/15 A3005 RMK A01 T03020151  RH  042%=      5-min Rain = 0
KLBW 051730Z 09007KT 30/15 A3005 RMK A01 T03040150  RH  041%=      5-min Rain = 0
KLBW 051735Z 09008KT 30/15 A3005 RMK A01 T03020150  RH  042%=      5-min Rain = 0
KLBW 051740Z 08008KT 30/15 A3004 RMK A01 T02990149  RH  042%=      5-min Rain = 0
KLBW 051745Z 06009KT 30/15 A3004 RMK A01 T03030151  RH  041%=      5-min Rain = 0
KLBW 051750Z 07007G12KT 31/15 A3004 RMK A01 T03050148  RH  040%=      5-min Rain = 0
KLBW 051755Z 10007G12KT 31/15 A3004 RMK A01 T03070147  RH  040%=      5-min Rain = 0
KLBW 051800Z 11008G13KT 31/15 A3004 RMK A01 T03100148  RH  039%=      5-min Rain = 0
KLBW 051805Z 08008G13KT 31/15 A3004 RMK A01 T03110150  RH  040%=      5-min Rain = 0
KLBW 051810Z 10004G10KT 31/15 A3004 RMK A01 T03080149  RH  040%=      5-min Rain = 0
KLBW 051815Z 08008G13KT 31/15 A3004 RMK A01 T03120149  RH  039%=      5-min Rain = 0
KLBW 051820Z 05005G11KT 31/15 A3003 RMK A01 T03090145  RH  039%=      5-min Rain = 0
KLBW 051825Z 08008G13KT 31/15 A3003 RMK A01 T03100150  RH  040%=      5-min Rain = 0
KLBW 051830Z 11005G10KT 31/15 A3003 RMK A01 T03120152  RH  040%=      5-min Rain = 0
KLBW 051835Z 05006G13KT 32/15 A3003 RMK A01 T03150149  RH  038%=      5-min Rain = 0
KLBW 051840Z 06007KT 32/16 A3003 RMK A01 T03170160  RH  041%=      5-min Rain = 0
KLBW 051845Z 05007KT 32/16 A3003 RMK A01 T03190157  RH  039%=      5-min Rain = 0
KLBW 051850Z 07007G14KT 32/16 A3003 RMK A01 T03150159  RH  041%=      5-min Rain = 0
KLBW 051855Z 07006G11KT 31/16 A3003 RMK A01 T03140158  RH  041%=      5-min Rain = 0
KLBW 051900Z 07006G11KT 32/16 A3003 RMK A01 T03190159  RH  040%=      5-min Rain = 0
KLBW 051905Z 07006G11KT 32/16 A3003 RMK A01 T03180159  RH  040%=      5-min Rain = 0
KLBW 051910Z 10008KT 31/16 A3002 RMK A01 T03120158  RH  041%=      5-min Rain = 0
KLBW 051915Z 05007KT 32/16 A3002 RMK A01 T03150157  RH  040%=      5-min Rain = 0
KLBW 051920Z 02007KT 31/15 A3002 RMK A01 T03120154  RH  040%=      5-min Rain = 0
KLBW 051925Z 04005KT 32/16 A3002 RMK A01 T03150155  RH  040%=      5-min Rain = 0
KLBW 051930Z 01005KT 32/15 A3002 RMK A01 T03180154  RH  039%=      5-min Rain = 0
KLBW 051935Z 08006KT 32/16 A3002 RMK A01 T03220155  RH  038%=      5-min Rain = 0
KLBW 051940Z 09006KT 32/15 A3002 RMK A01 T03190153  RH  038%=      5-min Rain = 0
KLBW 051945Z 04004G10KT 32/15 A3001 RMK A01 T03170151  RH  038%=      5-min Rain = 0
KLBW 051950Z 35005KT 32/15 A3001 RMK A01 T03160149  RH  038%=      5-min Rain = 0
KLBW 051955Z 01002G7KT 32/15 A3001 RMK A01 T03160150  RH  038%=      5-min Rain = 0
KLBW 052000Z 08006KT 33/15 A3001 RMK A01 T03260154  RH  037%=      5-min Rain = 0
KLBW 052005Z 07006KT 33/15 A30 RMK A01 T03250152  RH  037%=      5-min Rain = 0
KLBW 052010Z 06006KT 33/15 A30 RMK A01 T03310151  RH  036%=      5-min Rain = 0
KLBW 052015Z 03005G10KT 33/15 A30 RMK A01 T03250147  RH  036%=      5-min Rain = 0
KLBW 052020Z 04004KT 32/15 A30 RMK A01 T03230147  RH  036%=      5-min Rain = 0
KLBW 052025Z 06003G9KT 32/15 A2999 RMK A01 T03220146  RH  036%=      5-min Rain = 0
KLBW 052030Z 10007KT 32/15 A2999 RMK A01 T03220146  RH  036%=      5-min Rain = 0
KLBW 052035Z 09005G10KT 33/15 A2999 RMK A01 T03280148  RH  035%=      5-min Rain = 0
KLBW 052040Z 11007KT 33/15 A2999 RMK A01 T03340149  RH  034%=      5-min Rain = 0
KLBW 052045Z 12007G12KT 33/15 A2999 RMK A01 T03320147  RH  034%=      5-min Rain = 0
KLBW 052050Z 13005KT 33/15 A2998 RMK A01 T03330147  RH  034%=      5-min Rain = 0
KLBW 052055Z 12003KT 33/15 A2998 RMK A01 T03330145  RH  034%=      5-min Rain = 0
KLBW 052100Z 26002KT 33/14 A2998 RMK A01 T03320144  RH  034%=      5-min Rain = 0
KLBW 052105Z 08005KT 34/15 A2997 RMK A01 T03350145  RH  033%=      5-min Rain = 0
KLBW 052110Z 02001KT 33/14 A2997 RMK A01 T03290142  RH  034%=      5-min Rain = 0
KLBW 052115Z 08005KT 33/14 A2997 RMK A01 T03300144  RH  034%=      5-min Rain = 0
KLBW 052120Z 05004G9KT 32/14 A2997 RMK A01 T03230142  RH  035%=      5-min Rain = 0
KLBW 052125Z 31002KT 32/14 A2997 RMK A01 T03230143  RH  035%=      5-min Rain = 0
KLBW 052130Z 16004KT 34/14 A2996 RMK A01 T03350144  RH  033%=      5-min Rain = 0
KLBW 052135Z 11004KT 34/14 A2996 RMK A01 T03370142  RH  032%=      5-min Rain = 0
KLBW 052140Z 23003KT 34/14 A2996 RMK A01 T03350141  RH  032%=      5-min Rain = 0
KLBW 052145Z 10004KT 34/14 A2996 RMK A01 T03410143  RH  032%=      5-min Rain = 0
KLBW 052150Z 07004KT 34/14 A2996 RMK A01 T03380141  RH  032%=      5-min Rain = 0
KLBW 052155Z 10007KT 33/14 A2996 RMK A01 T03300142  RH  034%=      5-min Rain = 0
KLBW 052200Z 13004KT 33/14 A2996 RMK A01 T03260142  RH  034%=      5-min Rain = 0
KLBW 052205Z 13006KT 33/15 A2996 RMK A01 T03270149  RH  036%=      5-min Rain = 0
KLBW 052210Z 10005KT 32/15 A2995 RMK A01 T03230149  RH  037%=      5-min Rain = 0
KLBW 052215Z 08006KT 32/15 A2995 RMK A01 T03240147  RH  036%=      5-min Rain = 0
KLBW 052220Z 06004KT 33/15 A2994 RMK A01 T03280147  RH  035%=      5-min Rain = 0
KLBW 052225Z 11007G14KT 34/15 A2994 RMK A01 T03380150  RH  034%=      5-min Rain = 0
KLBW 052230Z 15008G13KT 34/15 A2994 RMK A01 T03370150  RH  034%=      5-min Rain = 0
KLBW 052235Z 13009KT 34/15 A2994 RMK A01 T03400148  RH  033%=      5-min Rain = 0
KLBW 052240Z 12005KT 34/15 A2994 RMK A01 T03370147  RH  034%=      5-min Rain = 0
KLBW 052245Z 12005G11KT 34/15 A2993 RMK A01 T03400152  RH  034%=      5-min Rain = 0
KLBW 052250Z 13008G15KT 34/15 A2993 RMK A01 T03390152  RH  034%=      5-min Rain = 0
KLBW 052255Z 15007KT 34/15 A2993 RMK A01 T03390151  RH  034%=      5-min Rain = 0
KLBW 052300Z 09005KT 34/15 A2993 RMK A01 T03390150  RH  034%=      5-min Rain = 0
KLBW 052305Z 13006KT 34/15 A2993 RMK A01 T03370151  RH  034%=      5-min Rain = 0
KLBW 052310Z 12004KT 34/15 A2993 RMK A01 T03410150  RH  033%=      5-min Rain = 0
KLBW 052315Z 09004KT 34/15 A2993 RMK A01 T03390148  RH  033%=      5-min Rain = 0
KLBW 052320Z 08003KT 33/15 A2993 RMK A01 T03290146  RH  035%=      5-min Rain = 0
KLBW 052325Z 10005G11KT 33/15 A2992 RMK A01 T03270147  RH  035%=      5-min Rain = 0
KLBW 052330Z 10007KT 33/15 A2992 RMK A01 T03260150  RH  036%=      5-min Rain = 0
KLBW 052335Z 10005KT 33/15 A2992 RMK A01 T03340151  RH  035%=      5-min Rain = 0
KLBW 052340Z 11005KT 33/15 A2992 RMK A01 T03340150  RH  035%=      5-min Rain = 0
KLBW 052345Z 13007KT 34/15 A2992 RMK A01 T03390152  RH  034%=      5-min Rain = 0
KLBW 052350Z 12008KT 33/15 A2992 RMK A01 T03340150  RH  035%=      5-min Rain = 0
KLBW 052355Z 09004KT 33/15 A2991 RMK A01 T03290149  RH  035%=      5-min Rain = 0
KLBW 060000Z 11005KT 33/15 A2992 RMK A01 T03280149  RH  036%=      5-min Rain = 0
KLBW 060005Z 11006KT 33/15 A2992 RMK A01 T03260150  RH  036%=      5-min Rain = 0
KLBW 060010Z 09006KT 33/15 A2992 RMK A01 T03250149  RH  036%=      5-min Rain = 0
KLBW 060015Z 09004KT 33/15 A2992 RMK A01 T03280149  RH  035%=      5-min Rain = 0
KLBW 060020Z 11006KT 33/15 A2992 RMK A01 T03250148  RH  036%=      5-min Rain = 0
KLBW 060025Z 13004KT 32/15 A2992 RMK A01 T03230148  RH  036%=      5-min Rain = 0
KLBW 060030Z 12004KT 32/15 A2992 RMK A01 T03230149  RH  037%=      5-min Rain = 0
KLBW 060035Z 10005KT 32/15 A2992 RMK A01 T03210150  RH  037%=      5-min Rain = 0
KLBW 060040Z 14006KT 32/15 A2992 RMK A01 T03200152  RH  038%=      5-min Rain = 0
KLBW 060045Z 12005KT 32/15 A2992 RMK A01 T03190152  RH  038%=      5-min Rain = 0
KLBW 060050Z 12007KT 32/15 A2992 RMK A01 T03210154  RH  038%=      5-min Rain = 0
KLBW 060055Z 13007G12KT 32/16 A2992 RMK A01 T03210155  RH  039%=      5-min Rain = 0
KLBW 060100Z 14006KT 32/15 A2992 RMK A01 T03170154  RH  039%=      5-min Rain = 0
KLBW 060105Z 14006KT 32/15 A2992 RMK A01 T03160152  RH  039%=      5-min Rain = 0
KLBW 060110Z 12007KT 32/15 A2992 RMK A01 T03150154  RH  040%=      5-min Rain = 0
KLBW 060115Z 10008KT 31/16 A2992 RMK A01 T03130155  RH  040%=      5-min Rain = 0
KLBW 060120Z 11006KT 31/16 A2993 RMK A01 T03130155  RH  040%=      5-min Rain = 0
KLBW 060125Z 08007KT 31/16 A2993 RMK A01 T03130157  RH  041%=      5-min Rain = 0
KLBW 060130Z 05013G22KT 30/16 A2994 RMK A01 T02980160  RH  046%=      5-min Rain = 0
KLBW 060135Z 05013G18KT 29/16 A2994 RMK A01 T02850163  RH  050%=      5-min Rain = 0
KLBW 060140Z 06011G17KT 29/17 A2994 RMK A01 T02860165  RH  050%=      5-min Rain = 0
KLBW 060145Z 06012G18KT 29/16 A2993 RMK A01 T02870164  RH  050%=      5-min Rain = 0
KLBW 060150Z 07013KT 28/17 A2994 RMK A01 T02810168  RH  053%=      5-min Rain = 0
KLBW 060155Z 07012KT 28/17 A2994 RMK A01 T02770171  RH  055%=      5-min Rain = 0
KLBW 060200Z 08013G19KT 27/17 A2995 RMK A01 T02720171  RH  057%=      5-min Rain = 0
KLBW 060205Z 10013G20KT 27/17 A2996 RMK A01 T02720170  RH  056%=      5-min Rain = 0
KLBW 060210Z 10011G16KT 27/17 A2995 RMK A01 T02680170  RH  058%=      5-min Rain = 0
KLBW 060215Z 10010G15KT 27/17 A2995 RMK A01 T02710166  RH  055%=      5-min Rain = 0
KLBW 060220Z 12010KT 27/16 A2996 RMK A01 T02730160  RH  052%=      5-min Rain = 0
KLBW 060225Z 14005G10KT 27/16 A2996 RMK A01 T02710156  RH  051%=      5-min Rain = 0
KLBW 060230Z 28009G15KT 27/17 A2997 RMK A01 T02670167  RH  057%=      5-min Rain = 0
KLBW 060235Z 29014G25KT 26/18 A2998 RMK A01 T02590177  RH  064%=      5-min Rain = 0
KLBW 060240Z 08006G12KT 26/18 A2997 RMK A01 T02550178  RH  065%=      5-min Rain = 0.03
KLBW 060245Z 06007KT 25/19 A2996 RMK A01 T02460187  RH  074%=      5-min Rain = 0.01
KLBW 060250Z 03004KT 24/20 A2997 RMK A01 T02410195  RH  080%=      5-min Rain = 0.01
KLBW 060255Z 24005G11KT 24/20 A2999 RMK A01 T02360199  RH  085%=      5-min Rain = 0
KLBW 060300Z 27012G19KT 23/19 A3001 RMK A01 T02330187  RH  080%=      5-min Rain = 0
KLBW 060305Z 27007KT 23/18 A3001 RMK A01 T02330183  RH  077%=      5-min Rain = 0
KLBW 060310Z 24011G19KT 23/19 A3001 RMK A01 T02290185  RH  080%=      5-min Rain = 0
KLBW 060315Z 24012G18KT 22/18 A3002 RMK A01 T02210181  RH  082%=      5-min Rain = 0
KLBW 060320Z 24008KT 22/18 A3001 RMK A01 T02170176  RH  082%=      5-min Rain = 0
KLBW 060325Z 25006KT 21/18 A30 RMK A01 T02140177  RH  084%=      5-min Rain = 0
KLBW 060330Z 25007G12KT 22/17 A30 RMK A01 T02150173  RH  081%=      5-min Rain = 0
KLBW 060335Z 24006KT 22/17 A3001 RMK A01 T02170172  RH  080%=      5-min Rain = 0
KLBW 060340Z 24005KT 22/17 A3002 RMK A01 T02180170  RH  078%=      5-min Rain = 0
KLBW 060345Z 23005KT 22/17 A3001 RMK A01 T02180170  RH  078%=      5-min Rain = 0
KLBW 060350Z 23005KT 22/17 A3001 RMK A01 T02180169  RH  078%=      5-min Rain = 0
KLBW 060355Z 24001KT 22/17 A3001 RMK A01 T02180169  RH  077%=      5-min Rain = 0
KLBW 060400Z 04003KT 22/18 A3001 RMK A01 T02190175  RH  080%=      5-min Rain = 0
KLBW 060405Z 34007G15KT 22/18 A3003 RMK A01 T02210177  RH  080%=      5-min Rain = 0
KLBW 060410Z 31010KT 22/18 A3005 RMK A01 T02210176  RH  080%=      5-min Rain = 0
KLBW 060415Z 31011G17KT 22/18 A3006 RMK A01 T02200175  RH  080%=      5-min Rain = 0
KLBW 060420Z 32016G24KT 22/17 A3007 RMK A01 T02190174  RH  079%=      5-min Rain = 0
KLBW 060425Z 32015G21KT 22/17 A3006 RMK A01 T02170169  RH  078%=      5-min Rain = 0
KLBW 060430Z 33012G20KT 22/18 A3005 RMK A01 T02150175  RH  082%=      5-min Rain = 0
KLBW 060435Z 34012G17KT 21/18 A3004 RMK A01 T02120178  RH  085%=      5-min Rain = 0
KLBW 060440Z 34010G15KT 21/18 A3003 RMK A01 T02100180  RH  088%=      5-min Rain = 0
KLBW 060445Z 32009G15KT 21/18 A3002 RMK A01 T02070181  RH  090%=      5-min Rain = 0
KLBW 060450Z 32007G13KT 21/18 A3002 RMK A01 T02080181  RH  089%=      5-min Rain = 0
KLBW 060455Z 34005KT 21/18 A3002 RMK A01 T02110179  RH  086%=      5-min Rain = 0

Page generated in 0.0202 seconds.